createdAt,value
2023-05-21T00:01:42.887Z,5.20
2023-05-21T00:04:10.164Z,2.65
2023-05-21T00:06:37.572Z,4.47
2023-05-21T00:09:05.896Z,4.40
2023-05-21T00:11:33.305Z,4.80
2023-05-21T00:14:00.289Z,4.25
2023-05-21T00:16:27.207Z,3.25
2023-05-21T00:18:54.698Z,2.70
2023-05-21T00:21:26.004Z,3.70
2023-05-21T00:23:56.841Z,2.38
2023-05-21T00:26:24.213Z,2.95
2023-05-21T00:28:54.349Z,5.18
2023-05-21T00:31:21.786Z,4.00
2023-05-21T00:33:48.650Z,3.33
2023-05-21T00:36:16.664Z,5.50
2023-05-21T00:38:44.293Z,2.63
2023-05-21T00:41:11.429Z,3.00
2023-05-21T00:43:41.955Z,9.32
2023-05-21T00:46:17.215Z,7.75
2023-05-21T00:48:46.106Z,4.82
2023-05-21T00:51:18.670Z,2.67
2023-05-21T00:53:46.744Z,2.38
2023-05-21T00:56:14.040Z,3.78
2023-05-21T00:58:41.607Z,3.92
2023-05-21T01:01:13.543Z,6.28
2023-05-21T01:03:41.104Z,3.08
2023-05-21T01:06:09.724Z,3.35
2023-05-21T01:08:40.817Z,3.22
2023-05-21T01:11:09.468Z,3.28
2023-05-21T01:13:39.357Z,4.15
2023-05-21T01:16:08.626Z,4.32
2023-05-21T01:18:37.704Z,4.97
2023-05-21T01:21:07.342Z,5.25
2023-05-21T01:23:34.604Z,3.55
2023-05-21T01:26:01.448Z,4.30
2023-05-21T01:28:29.840Z,4.90
2023-05-21T01:31:01.220Z,5.90
2023-05-21T01:33:38.851Z,4.60
2023-05-21T01:36:28.156Z,4.05
2023-05-21T01:39:06.674Z,3.67
2023-05-21T01:41:38.294Z,5.15
2023-05-21T01:44:06.839Z,3.30
2023-05-21T01:46:36.339Z,4.93
2023-05-21T01:49:07.961Z,5.30
2023-05-21T01:51:35.807Z,4.47
2023-05-21T01:54:02.951Z,6.28
2023-05-21T01:56:29.961Z,4.78
2023-05-21T01:58:59.436Z,6.25
2023-05-21T02:01:27.434Z,7.15
2023-05-21T02:03:54.424Z,6.28
2023-05-21T02:06:21.447Z,4.60
2023-05-21T02:08:48.486Z,3.88
2023-05-21T02:11:15.531Z,3.85
2023-05-21T02:13:43.058Z,7.90
2023-05-21T02:16:14.903Z,5.82
2023-05-21T02:21:13.574Z,5.82
2023-05-21T02:23:42.547Z,4.78
2023-05-21T02:26:09.402Z,5.07
2023-05-21T02:28:36.355Z,5.70
2023-05-21T02:31:03.300Z,6.95
2023-05-21T02:33:30.318Z,7.55
2023-05-21T02:35:57.196Z,7.53
2023-05-21T02:38:25.850Z,5.32
2023-05-21T02:40:53.188Z,6.35
2023-05-21T02:43:20.166Z,6.78
2023-05-21T02:45:47.556Z,5.13
2023-05-21T02:48:14.798Z,4.78
2023-05-21T02:50:42.184Z,5.55
2023-05-21T02:53:09.032Z,4.25
2023-05-21T02:55:36.648Z,6.03
2023-05-21T02:58:04.172Z,7.68
2023-05-21T03:00:31.261Z,5.70
2023-05-21T03:03:00.095Z,5.28
2023-05-21T03:05:27.463Z,7.40
2023-05-21T03:07:54.376Z,4.88
2023-05-21T03:10:21.310Z,5.32
2023-05-21T03:12:48.152Z,6.55
2023-05-21T03:15:15.034Z,5.90
2023-05-21T03:17:42.371Z,5.57
2023-05-21T03:20:15.992Z,6.22
2023-05-21T03:22:44.714Z,10.70
2023-05-21T03:25:12.793Z,6.05
2023-05-21T03:27:40.019Z,8.13
2023-05-21T03:30:16.202Z,7.38
2023-05-21T03:33:00.200Z,6.75
2023-05-21T03:35:27.505Z,7.68
2023-05-21T03:37:54.457Z,7.18
2023-05-21T03:40:21.966Z,5.65
2023-05-21T03:42:49.292Z,4.95
2023-05-21T03:45:16.430Z,6.93
2023-05-21T03:47:58.781Z,6.13
2023-05-21T03:50:25.708Z,5.82
2023-05-21T03:52:52.743Z,9.55
2023-05-21T03:55:19.793Z,4.65
2023-05-21T03:57:47.018Z,6.90
2023-05-21T04:00:15.061Z,6.43
2023-05-21T04:02:44.985Z,4.63
2023-05-21T04:05:15.941Z,5.88
2023-05-21T04:07:43.008Z,6.45
2023-05-21T04:10:10.147Z,8.95
2023-05-21T04:12:36.903Z,5.68
2023-05-21T04:15:05.040Z,6.53
2023-05-21T04:17:33.412Z,7.22
2023-05-21T04:20:00.613Z,7.63
2023-05-21T04:22:27.683Z,5.50
2023-05-21T04:24:54.639Z,5.00
2023-05-21T04:27:26.351Z,6.80
2023-05-21T04:29:54.854Z,6.78
2023-05-21T04:32:23.834Z,5.15
2023-05-21T04:34:51.100Z,6.43
2023-05-21T04:37:17.983Z,6.68
2023-05-21T04:39:46.849Z,5.18
2023-05-21T04:42:14.266Z,6.68
2023-05-21T04:44:44.380Z,6.50
2023-05-21T04:47:12.376Z,6.57
2023-05-21T04:49:39.291Z,6.18
2023-05-21T04:52:06.201Z,9.93
2023-05-21T04:54:32.990Z,6.90
2023-05-21T04:57:01.171Z,5.43
2023-05-21T04:59:28.120Z,5.68
2023-05-21T05:01:55.031Z,6.03
2023-05-21T05:04:22.195Z,6.38
2023-05-21T05:06:49.087Z,5.05
2023-05-21T05:09:16.170Z,5.45
2023-05-21T05:11:43.428Z,7.40
2023-05-21T05:14:10.393Z,6.25
2023-05-21T05:16:37.369Z,5.18
2023-05-21T05:19:04.335Z,6.60
2023-05-21T05:21:31.768Z,5.82
2023-05-21T05:23:59.422Z,5.78
2023-05-21T05:26:28.937Z,9.90
2023-05-21T05:28:56.561Z,5.72
2023-05-21T05:31:23.870Z,5.53
2023-05-21T05:33:52.252Z,7.43
2023-05-21T05:36:19.590Z,5.25
2023-05-21T05:38:46.550Z,8.48
2023-05-21T05:41:13.539Z,8.95
2023-05-21T05:43:40.907Z,5.32
2023-05-21T05:46:07.869Z,4.57
2023-05-21T05:48:34.776Z,6.85
2023-05-21T05:51:02.247Z,5.07
2023-05-21T05:53:32.060Z,6.07
2023-05-21T05:55:59.835Z,6.53
2023-05-21T05:58:27.012Z,8.60
2023-05-21T06:00:58.542Z,5.70
2023-05-21T06:03:28.363Z,7.53
2023-05-21T06:05:55.773Z,7.40
2023-05-21T06:08:23.414Z,11.73
2023-05-21T06:10:50.573Z,8.05
2023-05-21T06:13:17.722Z,6.45
2023-05-21T06:15:45.288Z,5.72
2023-05-21T06:18:12.380Z,6.05
2023-05-21T06:20:39.531Z,5.47
2023-05-21T06:23:08.842Z,5.75
2023-05-21T06:25:36.318Z,7.47
2023-05-21T06:28:03.712Z,5.95
2023-05-21T06:30:31.470Z,6.82
2023-05-21T06:32:59.311Z,5.85
2023-05-21T06:35:26.179Z,5.45
2023-05-21T06:37:53.158Z,5.57
2023-05-21T06:40:20.757Z,6.45
2023-05-21T06:42:48.052Z,5.65
2023-05-21T06:45:33.492Z,7.28
2023-05-21T06:48:06.829Z,6.72
2023-05-21T06:50:33.775Z,13.15
2023-05-21T06:53:01.408Z,8.60
2023-05-21T06:55:29.273Z,5.93
2023-05-21T06:58:07.378Z,7.65
2023-05-21T07:00:34.347Z,6.32
2023-05-21T07:03:01.267Z,8.90
2023-05-21T07:05:28.186Z,8.10
2023-05-21T07:07:55.092Z,8.45
2023-05-21T07:10:22.139Z,7.72
2023-05-21T07:12:49.044Z,10.02
2023-05-21T07:15:16.183Z,9.68
2023-05-21T07:17:43.647Z,6.70
2023-05-21T07:20:14.065Z,10.30
2023-05-21T07:25:12.175Z,7.93
2023-05-21T07:27:39.246Z,12.60
2023-05-21T07:30:07.184Z,9.25
2023-05-21T07:32:46.551Z,6.78
2023-05-21T07:35:13.515Z,9.27
2023-05-21T07:37:40.646Z,7.63
2023-05-21T07:40:08.416Z,8.45
2023-05-21T07:42:36.507Z,5.95
2023-05-21T07:45:03.867Z,8.07
2023-05-21T07:47:35.612Z,9.90
2023-05-21T07:50:02.912Z,7.35
2023-05-21T07:52:29.856Z,6.97
2023-05-21T07:54:57.058Z,7.47
2023-05-21T07:57:24.657Z,7.35
2023-05-21T07:59:58.524Z,9.40
2023-05-21T08:02:26.098Z,8.80
2023-05-21T08:04:55.010Z,8.43
2023-05-21T08:07:21.994Z,9.23
2023-05-21T08:09:48.834Z,7.53
2023-05-21T08:12:16.176Z,10.10
2023-05-21T08:14:44.023Z,10.88
2023-05-21T08:17:12.892Z,11.15
2023-05-21T08:19:40.308Z,7.40
2023-05-21T08:22:07.428Z,8.25
2023-05-21T08:24:36.280Z,11.05
2023-05-21T08:27:03.279Z,11.63
2023-05-21T08:29:33.091Z,7.38
2023-05-21T08:32:00.221Z,12.88
2023-05-21T08:34:27.234Z,8.07
2023-05-21T08:37:06.488Z,7.57
2023-05-21T08:40:06.420Z,10.07
2023-05-21T08:42:48.831Z,7.30
2023-05-21T08:45:22.334Z,10.30
2023-05-21T08:47:59.923Z,12.73
2023-05-21T08:50:35.016Z,9.68
2023-05-21T08:53:15.955Z,8.05
2023-05-21T08:55:57.782Z,7.25
2023-05-21T08:58:33.874Z,6.80
2023-05-21T09:01:01.358Z,8.32
2023-05-21T09:03:29.717Z,8.73
2023-05-21T09:05:57.420Z,8.48
2023-05-21T09:08:35.219Z,7.10
2023-05-21T09:11:16.627Z,10.30
2023-05-21T09:13:51.286Z,7.25
2023-05-21T09:16:25.835Z,9.00
2023-05-21T09:18:52.961Z,14.48
2023-05-21T09:21:31.444Z,7.68
2023-05-21T09:24:11.146Z,7.50
2023-05-21T09:26:38.188Z,8.52
2023-05-21T09:29:06.848Z,6.53
2023-05-21T09:31:33.912Z,10.35
2023-05-21T09:34:01.373Z,10.02
2023-05-21T09:36:29.585Z,7.40
2023-05-21T09:38:58.393Z,6.30
2023-05-21T09:41:36.035Z,9.25
2023-05-21T09:44:04.555Z,6.47
2023-05-21T09:46:41.806Z,9.90
2023-05-21T09:49:26.155Z,6.63
2023-05-21T09:51:57.619Z,8.93
2023-05-21T09:54:34.535Z,8.37
2023-05-21T09:57:04.402Z,7.25
2023-05-21T09:59:41.315Z,7.28
2023-05-21T10:02:24.621Z,7.55
2023-05-21T10:04:52.849Z,10.07
2023-05-21T10:07:25.891Z,6.50
2023-05-21T10:09:57.855Z,6.22
2023-05-21T10:12:25.318Z,7.93
2023-05-21T10:15:03.186Z,7.03
2023-05-21T10:17:30.876Z,6.70
2023-05-21T10:20:02.117Z,6.90
2023-05-21T10:22:29.534Z,10.07
2023-05-21T10:24:57.678Z,6.00
2023-05-21T10:27:24.829Z,11.05
2023-05-21T10:29:54.436Z,5.80
2023-05-21T10:32:22.927Z,6.75
2023-05-21T10:34:51.607Z,7.00
2023-05-21T10:37:19.024Z,11.48
2023-05-21T10:39:46.176Z,8.85
2023-05-21T10:42:19.311Z,8.23
2023-05-21T10:45:08.434Z,10.10
2023-05-21T10:47:38.106Z,7.15
2023-05-21T10:50:31.338Z,8.07
2023-05-21T10:53:40.042Z,9.82
2023-05-21T10:56:12.567Z,6.72
2023-05-21T10:59:05.917Z,8.32
2023-05-21T11:01:37.400Z,6.85
2023-05-21T11:06:32.981Z,8.38
2023-05-21T11:09:12.668Z,8.65
2023-05-21T11:11:46.174Z,10.32
2023-05-21T11:14:36.281Z,8.70
2023-05-21T11:17:22.378Z,7.43
2023-05-21T11:19:51.572Z,8.15
2023-05-21T11:22:24.626Z,8.13
2023-05-21T11:24:53.166Z,7.47
2023-05-21T11:27:33.712Z,7.75
2023-05-21T11:30:03.646Z,8.13
2023-05-21T11:32:31.701Z,7.80
2023-05-21T11:35:03.601Z,8.55
2023-05-21T11:37:33.353Z,6.95
2023-05-21T11:40:20.461Z,6.38
2023-05-21T11:42:52.793Z,7.43
2023-05-21T11:45:21.501Z,7.10
2023-05-21T11:47:49.557Z,6.40
2023-05-21T11:50:17.736Z,11.82
2023-05-21T11:52:45.558Z,7.15
2023-05-21T11:55:13.361Z,9.52
2023-05-21T11:57:44.258Z,7.25
2023-05-21T12:00:16.377Z,7.97
2023-05-21T12:02:51.297Z,9.10
2023-05-21T12:05:18.295Z,7.05
2023-05-21T12:07:50.086Z,7.78
2023-05-21T12:10:20.573Z,9.38
2023-05-21T12:12:54.783Z,7.00
2023-05-21T12:15:25.086Z,6.88
2023-05-21T12:17:53.311Z,8.45
2023-05-21T12:20:20.795Z,6.65
2023-05-21T12:22:49.271Z,12.75
2023-05-21T12:25:21.426Z,7.25
2023-05-21T12:27:52.494Z,7.82
2023-05-21T12:30:20.695Z,9.30
2023-05-21T12:32:49.130Z,11.90
2023-05-21T12:35:24.281Z,8.52
2023-05-21T12:37:51.935Z,9.68
2023-05-21T12:40:19.676Z,7.57
2023-05-21T12:42:46.734Z,11.15
2023-05-21T12:45:14.222Z,9.77
2023-05-21T12:47:41.950Z,8.27
2023-05-21T12:50:12.260Z,11.43
2023-05-21T12:52:43.031Z,13.07
2023-05-21T12:55:12.907Z,10.30
2023-05-21T12:57:43.988Z,11.48
2023-05-21T13:00:11.943Z,12.30
2023-05-21T13:02:40.936Z,12.18
2023-05-21T13:05:09.748Z,9.20
2023-05-21T13:07:39.325Z,8.10
2023-05-21T13:10:07.124Z,15.32
2023-05-21T13:12:34.730Z,9.10
2023-05-21T13:15:06.295Z,8.50
2023-05-21T13:17:33.173Z,10.13
2023-05-21T13:20:12.427Z,11.18
2023-05-21T13:22:51.048Z,14.57
2023-05-21T13:25:25.049Z,10.95
2023-05-21T13:27:53.498Z,10.63
2023-05-21T13:30:21.920Z,11.32
2023-05-21T13:32:52.307Z,13.57
2023-05-21T13:35:19.716Z,11.02
2023-05-21T13:37:46.662Z,9.57
2023-05-21T13:40:17.878Z,10.63
2023-05-21T13:42:46.452Z,8.48
2023-05-21T13:45:15.103Z,9.43
2023-05-21T13:47:43.094Z,11.02
2023-05-21T13:50:10.799Z,8.82
2023-05-21T13:52:38.599Z,11.90
2023-05-21T13:55:06.547Z,7.22
2023-05-21T13:57:33.834Z,11.32
2023-05-21T14:00:01.194Z,10.20
2023-05-21T14:02:28.395Z,9.27
2023-05-21T14:04:55.365Z,11.60
2023-05-21T14:07:22.482Z,12.20
2023-05-21T14:09:49.607Z,9.65
2023-05-21T14:12:17.050Z,9.32
2023-05-21T14:14:43.985Z,10.15
2023-05-21T14:17:11.041Z,9.95
2023-05-21T14:19:37.852Z,15.20
2023-05-21T14:22:04.829Z,10.13
2023-05-21T14:24:31.739Z,10.07
2023-05-21T14:26:58.654Z,13.30
2023-05-21T14:29:25.546Z,12.27
2023-05-21T14:31:52.619Z,13.38
2023-05-21T14:34:19.531Z,9.57
2023-05-21T14:36:46.549Z,11.85
2023-05-21T14:39:13.409Z,7.70
2023-05-21T14:41:40.523Z,9.93
2023-05-21T14:44:07.377Z,12.00
2023-05-21T14:46:34.351Z,11.30
2023-05-21T14:49:01.337Z,11.32
2023-05-21T14:51:28.153Z,9.98
2023-05-21T14:53:57.251Z,9.52
2023-05-21T14:56:27.239Z,10.77
2023-05-21T14:58:54.428Z,11.05
2023-05-21T15:01:21.539Z,12.02
2023-05-21T15:03:48.538Z,9.85
2023-05-21T15:06:15.495Z,11.63
2023-05-21T15:08:42.524Z,10.10
2023-05-21T15:11:09.996Z,13.57
2023-05-21T15:13:36.872Z,9.10
2023-05-21T15:16:11.994Z,8.18
2023-05-21T15:18:42.033Z,10.90
2023-05-21T15:21:09.070Z,12.20
2023-05-21T15:23:35.972Z,11.07
2023-05-21T15:26:02.822Z,10.77
2023-05-21T15:28:29.722Z,10.85
2023-05-21T15:30:56.653Z,8.38
2023-05-21T15:33:23.472Z,6.75
2023-05-21T15:35:50.500Z,7.28
2023-05-21T15:38:17.531Z,18.05
2023-05-21T15:40:44.435Z,8.18
2023-05-21T15:43:11.287Z,7.25
2023-05-21T15:45:38.636Z,8.27
2023-05-21T15:48:07.051Z,8.32
2023-05-21T15:50:35.821Z,9.70
2023-05-21T15:53:04.349Z,7.85
2023-05-21T15:55:34.452Z,7.60
2023-05-21T15:58:03.173Z,8.35
2023-05-21T16:00:30.188Z,10.70
2023-05-21T16:02:57.232Z,9.65
2023-05-21T16:05:24.463Z,8.23
2023-05-21T16:07:51.504Z,7.00
2023-05-21T16:10:18.451Z,8.23
2023-05-21T16:12:45.329Z,11.70
2023-05-21T16:15:12.501Z,13.82
2023-05-21T16:17:39.453Z,8.48
2023-05-21T16:20:07.230Z,9.73
2023-05-21T16:22:34.065Z,8.35
2023-05-21T16:25:00.914Z,8.65
2023-05-21T16:27:27.825Z,12.15
2023-05-21T16:29:54.656Z,8.77
2023-05-21T16:32:22.070Z,9.35
2023-05-21T16:34:49.158Z,9.35
2023-05-21T16:37:16.030Z,11.02
2023-05-21T16:39:42.861Z,7.18
2023-05-21T16:42:09.734Z,9.57
2023-05-21T16:44:37.846Z,8.70
2023-05-21T16:47:05.208Z,10.35
2023-05-21T16:49:32.167Z,8.93
2023-05-21T16:51:59.461Z,6.72
2023-05-21T16:54:27.359Z,7.32
2023-05-21T16:56:55.184Z,8.57
2023-05-21T16:59:22.012Z,9.95
2023-05-21T17:01:49.037Z,9.98
2023-05-21T17:04:16.160Z,13.75
2023-05-21T17:06:42.983Z,9.13
2023-05-21T17:09:09.982Z,11.55
2023-05-21T17:11:36.927Z,9.35
2023-05-21T17:14:03.736Z,6.43
2023-05-21T17:16:30.811Z,12.48
2023-05-21T17:18:57.769Z,10.35
2023-05-21T17:21:26.435Z,14.13
2023-05-21T17:23:53.258Z,9.02
2023-05-21T17:26:20.047Z,10.63
2023-05-21T17:28:47.107Z,6.35
2023-05-21T17:31:14.145Z,7.95
2023-05-21T17:33:41.114Z,9.85
2023-05-21T17:36:08.024Z,11.55
2023-05-21T17:38:34.866Z,8.10
2023-05-21T17:41:08.980Z,11.05
2023-05-21T17:43:36.030Z,9.10
2023-05-21T17:46:02.798Z,11.50
2023-05-21T17:48:29.626Z,10.02
2023-05-21T17:50:56.750Z,10.55
2023-05-21T17:53:23.601Z,11.77
2023-05-21T17:55:50.627Z,11.65
2023-05-21T17:58:17.438Z,14.18
2023-05-21T18:00:44.432Z,7.40
2023-05-21T18:03:11.323Z,9.82
2023-05-21T18:05:38.497Z,12.68
2023-05-21T18:08:07.024Z,12.43
2023-05-21T18:10:36.179Z,12.38
2023-05-21T18:13:03.252Z,11.88
2023-05-21T18:15:30.234Z,12.70
2023-05-21T18:17:57.212Z,14.57
2023-05-21T18:20:24.201Z,12.10
2023-05-21T18:22:51.394Z,12.15
2023-05-21T18:25:18.408Z,11.30
2023-05-21T18:27:46.239Z,15.27
2023-05-21T18:30:13.604Z,11.75
2023-05-21T18:32:40.623Z,11.48
2023-05-21T18:35:11.389Z,11.60
2023-05-21T18:37:41.561Z,11.27
2023-05-21T18:40:11.911Z,10.90
2023-05-21T18:42:38.960Z,13.10
2023-05-21T18:45:07.912Z,16.48
2023-05-21T18:47:38.295Z,15.90
2023-05-21T18:50:07.278Z,14.32
2023-05-21T18:52:34.115Z,13.70
2023-05-21T18:55:00.969Z,10.13
2023-05-21T18:57:28.286Z,13.73
2023-05-21T18:59:55.213Z,14.18
2023-05-21T19:02:22.277Z,15.63
2023-05-21T19:04:49.430Z,11.80
2023-05-21T19:07:16.336Z,18.55
2023-05-21T19:09:43.278Z,16.75
2023-05-21T19:12:10.394Z,18.80
2023-05-21T19:14:37.659Z,16.75
2023-05-21T19:17:04.960Z,17.35
2023-05-21T19:19:31.800Z,15.18
2023-05-21T19:21:58.866Z,15.30
2023-05-21T19:24:26.175Z,17.38
2023-05-21T19:26:53.033Z,16.70
2023-05-21T19:29:19.962Z,14.77
2023-05-21T19:31:46.888Z,14.75
2023-05-21T19:34:13.926Z,17.60
2023-05-21T19:36:52.394Z,19.58
2023-05-21T19:39:20.921Z,15.27
2023-05-21T19:41:47.871Z,14.13
2023-05-21T19:44:14.993Z,19.95
2023-05-21T19:46:41.790Z,16.50
2023-05-21T19:49:11.036Z,18.58
2023-05-21T19:51:38.130Z,19.45
2023-05-21T19:54:05.002Z,16.30
2023-05-21T19:56:31.984Z,21.85
2023-05-21T19:58:58.941Z,22.40
2023-05-21T20:01:26.113Z,20.75
2023-05-21T20:03:53.070Z,17.95
2023-05-21T20:06:20.729Z,21.92
2023-05-21T20:08:48.096Z,16.50
2023-05-21T20:11:15.604Z,18.65
2023-05-21T20:13:42.714Z,18.55
2023-05-21T20:16:10.794Z,18.30
2023-05-21T20:18:38.034Z,19.15
2023-05-21T20:21:06.387Z,22.17
2023-05-21T20:23:33.767Z,20.85
2023-05-21T20:26:06.967Z,20.85
2023-05-21T20:28:35.158Z,20.30
2023-05-21T20:31:02.689Z,17.70
2023-05-21T20:33:32.230Z,20.40
2023-05-21T20:35:59.432Z,17.13
2023-05-21T20:38:27.093Z,18.77
2023-05-21T20:40:56.824Z,17.20
2023-05-21T20:43:25.788Z,17.73
2023-05-21T20:45:59.984Z,16.45
2023-05-21T20:48:29.723Z,18.08
2023-05-21T20:51:00.416Z,16.33
2023-05-21T20:53:27.683Z,15.82
2023-05-21T20:55:54.857Z,16.38
2023-05-21T20:58:24.040Z,23.30
2023-05-21T21:00:51.452Z,20.33
2023-05-21T21:03:21.636Z,19.63
2023-05-21T21:05:49.310Z,14.90
2023-05-21T21:08:16.692Z,15.30
2023-05-21T21:10:46.804Z,20.45
2023-05-21T21:13:14.575Z,15.88
2023-05-21T21:15:42.629Z,20.30
2023-05-21T21:18:11.996Z,17.77
2023-05-21T21:20:39.503Z,23.70
2023-05-21T21:23:06.560Z,17.83
2023-05-21T21:25:33.410Z,20.15
2023-05-21T21:28:00.481Z,20.67
2023-05-21T21:30:27.341Z,17.73
2023-05-21T21:32:54.378Z,17.13
2023-05-21T21:35:21.241Z,19.05
2023-05-21T21:37:48.161Z,23.30
2023-05-21T21:40:15.130Z,20.73
2023-05-21T21:42:42.610Z,15.75
2023-05-21T21:45:10.213Z,20.05
2023-05-21T21:47:37.089Z,21.63
2023-05-21T21:50:04.592Z,20.02
2023-05-21T21:52:32.456Z,17.00
2023-05-21T21:54:59.400Z,22.23
2023-05-21T21:57:29.330Z,19.27
2023-05-21T21:59:56.210Z,20.10
2023-05-21T22:02:23.158Z,25.17
2023-05-21T22:04:50.084Z,21.38
2023-05-21T22:07:18.093Z,17.65
2023-05-21T22:09:45.663Z,19.30
2023-05-21T22:12:13.172Z,21.70
2023-05-21T22:14:40.126Z,18.17
2023-05-21T22:17:08.952Z,19.63
2023-05-21T22:19:35.985Z,18.02
2023-05-21T22:22:04.188Z,22.50
2023-05-21T22:24:32.808Z,20.95
2023-05-21T22:27:00.566Z,23.63
2023-05-21T22:29:27.547Z,21.67
2023-05-21T22:31:54.421Z,20.80
2023-05-21T22:34:22.289Z,21.05
2023-05-21T22:36:49.229Z,24.33
2023-05-21T22:39:16.860Z,20.45
2023-05-21T22:41:44.640Z,22.35
2023-05-21T22:44:11.422Z,27.80
2023-05-21T22:46:38.891Z,21.52
2023-05-21T22:49:06.331Z,21.92
2023-05-21T22:51:34.739Z,21.17
2023-05-21T22:54:01.860Z,23.80
2023-05-21T22:56:29.048Z,23.08
2023-05-21T22:58:56.631Z,27.33
2023-05-21T23:01:23.978Z,24.67
2023-05-21T23:03:51.640Z,25.23
2023-05-21T23:06:18.606Z,27.83
2023-05-21T23:08:45.504Z,25.33
2023-05-21T23:11:12.429Z,24.73
2023-05-21T23:13:39.190Z,23.38
2023-05-21T23:16:07.381Z,22.20
2023-05-21T23:18:35.388Z,21.17
2023-05-21T23:23:29.248Z,22.10
2023-05-21T23:25:57.663Z,20.95
2023-05-21T23:28:25.443Z,23.92
2023-05-21T23:30:53.050Z,28.10
2023-05-21T23:33:19.976Z,23.75
2023-05-21T23:35:46.951Z,22.92
2023-05-21T23:38:13.784Z,27.35
2023-05-21T23:40:40.973Z,29.75
2023-05-21T23:43:07.878Z,24.65
2023-05-21T23:45:34.765Z,23.77
2023-05-21T23:48:01.739Z,24.58
2023-05-21T23:50:28.717Z,20.67
2023-05-21T23:52:55.697Z,26.65
2023-05-21T23:55:22.552Z,29.60
2023-05-21T23:57:49.367Z,27.70
